sensor_id;sensor_type;location;lat;lon;timestamp;temperature;humidity
46159;DHT22;74657;45.650;25.590;2024-01-11T00:01:09;-7.90;99.90
46159;DHT22;74657;45.650;25.590;2024-01-11T00:03:32;-8.00;99.90
46159;DHT22;74657;45.650;25.590;2024-01-11T00:05:55;-8.00;99.90
46159;DHT22;74657;45.650;25.590;2024-01-11T00:08:18;-8.00;99.90
46159;DHT22;74657;45.650;25.590;2024-01-11T00:10:42;-8.10;99.90
46159;DHT22;74657;45.650;25.590;2024-01-11T00:13:05;-8.10;99.90
46159;DHT22;74657;45.650;25.590;2024-01-11T00:15:30;-8.30;99.90
46159;DHT22;74657;45.650;25.590;2024-01-11T00:17:53;-8.20;99.90
46159;DHT22;74657;45.650;25.590;2024-01-11T00:20:16;-8.30;99.90
46159;DHT22;74657;45.650;25.590;2024-01-11T00:22:39;-8.40;99.90
46159;DHT22;74657;45.650;25.590;2024-01-11T00:25:02;-8.40;99.90
46159;DHT22;74657;45.650;25.590;2024-01-11T00:27:25;-8.30;99.90
46159;DHT22;74657;45.650;25.590;2024-01-11T00:29:48;-8.30;99.90
46159;DHT22;74657;45.650;25.590;2024-01-11T00:32:13;-8.30;99.90
46159;DHT22;74657;45.650;25.590;2024-01-11T00:34:35;-8.20;99.90
46159;DHT22;74657;45.650;25.590;2024-01-11T00:36:58;-8.20;99.90
46159;DHT22;74657;45.650;25.590;2024-01-11T00:39:21;-8.20;99.90
46159;DHT22;74657;45.650;25.590;2024-01-11T00:41:45;-8.20;99.90
46159;DHT22;74657;45.650;25.590;2024-01-11T00:44:08;-8.20;99.90
46159;DHT22;74657;45.650;25.590;2024-01-11T00:46:31;-8.20;99.90
46159;DHT22;74657;45.650;25.590;2024-01-11T00:48:56;-8.10;99.90
46159;DHT22;74657;45.650;25.590;2024-01-11T00:51:19;-8.10;99.90
46159;DHT22;74657;45.650;25.590;2024-01-11T00:53:42;-8.00;99.90
46159;DHT22;74657;45.650;25.590;2024-01-11T00:56:05;-8.10;99.90
46159;DHT22;74657;45.650;25.590;2024-01-11T00:58:28;-8.10;99.90
46159;DHT22;74657;45.650;25.590;2024-01-11T01:00:51;-8.10;99.90
46159;DHT22;74657;45.650;25.590;2024-01-11T01:03:15;-8.20;99.90
46159;DHT22;74657;45.650;25.590;2024-01-11T01:05:39;-8.20;99.90
46159;DHT22;74657;45.650;25.590;2024-01-11T01:08:03;-8.20;99.90
46159;DHT22;74657;45.650;25.590;2024-01-11T01:10:26;-8.20;99.90
46159;DHT22;74657;45.650;25.590;2024-01-11T01:12:49;-8.20;99.90
46159;DHT22;74657;45.650;25.590;2024-01-11T01:15:12;-8.30;99.90
46159;DHT22;74657;45.650;25.590;2024-01-11T01:17:36;-8.30;99.90
46159;DHT22;74657;45.650;25.590;2024-01-11T01:19:59;-8.30;99.90
46159;DHT22;74657;45.650;25.590;2024-01-11T01:22:23;-8.30;99.90
46159;DHT22;74657;45.650;25.590;2024-01-11T01:24:46;-8.30;99.90
46159;DHT22;74657;45.650;25.590;2024-01-11T01:27:12;-8.20;99.90
46159;DHT22;74657;45.650;25.590;2024-01-11T01:29:35;-8.20;99.90
46159;DHT22;74657;45.650;25.590;2024-01-11T01:31:58;-8.20;99.90
46159;DHT22;74657;45.650;25.590;2024-01-11T01:34:21;-8.20;99.90
46159;DHT22;74657;45.650;25.590;2024-01-11T01:36:44;-8.20;99.90
46159;DHT22;74657;45.650;25.590;2024-01-11T01:39:07;-8.30;99.90
46159;DHT22;74657;45.650;25.590;2024-01-11T01:41:30;-8.20;99.90
46159;DHT22;74657;45.650;25.590;2024-01-11T01:43:53;-8.20;99.90
46159;DHT22;74657;45.650;25.590;2024-01-11T01:46:21;-8.20;99.90
46159;DHT22;74657;45.650;25.590;2024-01-11T01:48:45;-8.20;99.90
46159;DHT22;74657;45.650;25.590;2024-01-11T01:51:09;-8.20;99.90
46159;DHT22;74657;45.650;25.590;2024-01-11T01:53:32;-8.20;99.90
46159;DHT22;74657;45.650;25.590;2024-01-11T01:55:56;-8.20;99.90
46159;DHT22;74657;45.650;25.590;2024-01-11T01:58:20;-8.20;99.90
46159;DHT22;74657;45.650;25.590;2024-01-11T02:00:44;-8.20;99.90
46159;DHT22;74657;45.650;25.590;2024-01-11T02:03:07;-8.30;99.90
46159;DHT22;74657;45.650;25.590;2024-01-11T02:05:31;-8.40;99.90
46159;DHT22;74657;45.650;25.590;2024-01-11T02:07:56;-8.50;99.90
46159;DHT22;74657;45.650;25.590;2024-01-11T02:10:20;-8.50;99.90
46159;DHT22;74657;45.650;25.590;2024-01-11T02:12:45;-8.50;99.90
46159;DHT22;74657;45.650;25.590;2024-01-11T02:15:09;-8.50;99.90
46159;DHT22;74657;45.650;25.590;2024-01-11T02:17:33;-8.50;99.90
46159;DHT22;74657;45.650;25.590;2024-01-11T02:19:55;-8.50;99.90
46159;DHT22;74657;45.650;25.590;2024-01-11T02:22:27;-8.50;99.90
46159;DHT22;74657;45.650;25.590;2024-01-11T02:24:53;-8.50;99.90
46159;DHT22;74657;45.650;25.590;2024-01-11T02:27:15;-8.50;99.90
46159;DHT22;74657;45.650;25.590;2024-01-11T02:29:38;-8.50;99.90
46159;DHT22;74657;45.650;25.590;2024-01-11T02:32:02;-8.50;99.90
46159;DHT22;74657;45.650;25.590;2024-01-11T02:34:27;-8.50;99.90
46159;DHT22;74657;45.650;25.590;2024-01-11T02:36:51;-8.60;99.90
46159;DHT22;74657;45.650;25.590;2024-01-11T02:39:16;-8.60;99.90
46159;DHT22;74657;45.650;25.590;2024-01-11T02:41:43;-8.60;99.90
46159;DHT22;74657;45.650;25.590;2024-01-11T02:44:07;-8.60;99.90
46159;DHT22;74657;45.650;25.590;2024-01-11T02:46:30;-8.70;99.90
46159;DHT22;74657;45.650;25.590;2024-01-11T02:48:53;-8.70;99.90
46159;DHT22;74657;45.650;25.590;2024-01-11T02:51:16;-8.70;99.90
46159;DHT22;74657;45.650;25.590;2024-01-11T02:53:39;-8.80;99.90
46159;DHT22;74657;45.650;25.590;2024-01-11T02:56:02;-8.70;99.90
46159;DHT22;74657;45.650;25.590;2024-01-11T02:58:26;-8.80;99.90
46159;DHT22;74657;45.650;25.590;2024-01-11T03:00:49;-8.80;99.90
46159;DHT22;74657;45.650;25.590;2024-01-11T03:03:12;-8.90;99.90
46159;DHT22;74657;45.650;25.590;2024-01-11T03:05:35;-8.90;99.90
46159;DHT22;74657;45.650;25.590;2024-01-11T03:07:58;-8.90;99.90
46159;DHT22;74657;45.650;25.590;2024-01-11T03:10:21;-8.90;99.90
46159;DHT22;74657;45.650;25.590;2024-01-11T03:12:45;-8.80;99.90
46159;DHT22;74657;45.650;25.590;2024-01-11T03:15:10;-8.80;99.90
46159;DHT22;74657;45.650;25.590;2024-01-11T03:17:33;-8.80;99.90
46159;DHT22;74657;45.650;25.590;2024-01-11T03:19:56;-8.80;99.90
46159;DHT22;74657;45.650;25.590;2024-01-11T03:22:20;-8.80;99.90
46159;DHT22;74657;45.650;25.590;2024-01-11T03:24:43;-8.90;99.90
46159;DHT22;74657;45.650;25.590;2024-01-11T03:27:06;-8.80;99.90
46159;DHT22;74657;45.650;25.590;2024-01-11T03:29:28;-8.80;99.90
46159;DHT22;74657;45.650;25.590;2024-01-11T03:31:53;-8.90;99.90
46159;DHT22;74657;45.650;25.590;2024-01-11T03:34:16;-8.90;99.90
46159;DHT22;74657;45.650;25.590;2024-01-11T03:36:39;-8.90;99.90
46159;DHT22;74657;45.650;25.590;2024-01-11T03:39:02;-8.90;99.90
46159;DHT22;74657;45.650;25.590;2024-01-11T03:41:25;-8.90;99.90
46159;DHT22;74657;45.650;25.590;2024-01-11T03:43:47;-8.90;99.90
46159;DHT22;74657;45.650;25.590;2024-01-11T03:46:10;-8.90;99.90
46159;DHT22;74657;45.650;25.590;2024-01-11T03:48:35;-8.90;99.90
46159;DHT22;74657;45.650;25.590;2024-01-11T03:50:58;-8.90;99.90
46159;DHT22;74657;45.650;25.590;2024-01-11T03:53:21;-8.90;99.90
46159;DHT22;74657;45.650;25.590;2024-01-11T03:55:44;-8.90;99.90
46159;DHT22;74657;45.650;25.590;2024-01-11T03:58:06;-8.90;99.90
46159;DHT22;74657;45.650;25.590;2024-01-11T04:00:30;-8.90;99.90
46159;DHT22;74657;45.650;25.590;2024-01-11T04:02:54;-8.90;99.90
46159;DHT22;74657;45.650;25.590;2024-01-11T04:05:19;-9.00;99.90
46159;DHT22;74657;45.650;25.590;2024-01-11T04:07:42;-9.00;99.90
46159;DHT22;74657;45.650;25.590;2024-01-11T04:10:06;-9.00;99.90
46159;DHT22;74657;45.650;25.590;2024-01-11T04:12:30;-9.00;99.90
46159;DHT22;74657;45.650;25.590;2024-01-11T04:14:53;-9.00;99.90
46159;DHT22;74657;45.650;25.590;2024-01-11T04:17:15;-9.00;99.90
46159;DHT22;74657;45.650;25.590;2024-01-11T04:19:39;-9.00;99.90
46159;DHT22;74657;45.650;25.590;2024-01-11T04:22:04;-8.90;99.90
46159;DHT22;74657;45.650;25.590;2024-01-11T04:24:26;-8.90;99.90
46159;DHT22;74657;45.650;25.590;2024-01-11T04:26:49;-8.90;99.90
46159;DHT22;74657;45.650;25.590;2024-01-11T04:29:12;-8.90;99.90
46159;DHT22;74657;45.650;25.590;2024-01-11T04:31:35;-8.90;99.90
46159;DHT22;74657;45.650;25.590;2024-01-11T04:33:58;-8.90;99.90
46159;DHT22;74657;45.650;25.590;2024-01-11T04:36:21;-9.00;99.90
46159;DHT22;74657;45.650;25.590;2024-01-11T04:38:46;-9.00;99.90
46159;DHT22;74657;45.650;25.590;2024-01-11T04:41:09;-9.00;99.90
46159;DHT22;74657;45.650;25.590;2024-01-11T04:43:32;-9.00;99.90
46159;DHT22;74657;45.650;25.590;2024-01-11T04:45:54;-9.00;99.90
46159;DHT22;74657;45.650;25.590;2024-01-11T04:48:17;-9.00;99.90
46159;DHT22;74657;45.650;25.590;2024-01-11T04:50:41;-9.00;99.90
46159;DHT22;74657;45.650;25.590;2024-01-11T04:53:04;-9.00;99.90
46159;DHT22;74657;45.650;25.590;2024-01-11T04:55:29;-9.10;99.90
46159;DHT22;74657;45.650;25.590;2024-01-11T04:57:52;-9.00;99.90
46159;DHT22;74657;45.650;25.590;2024-01-11T05:00:16;-9.00;99.90
46159;DHT22;74657;45.650;25.590;2024-01-11T05:02:41;-9.00;99.90
46159;DHT22;74657;45.650;25.590;2024-01-11T05:05:05;-9.00;99.90
46159;DHT22;74657;45.650;25.590;2024-01-11T05:07:28;-9.00;99.90
46159;DHT22;74657;45.650;25.590;2024-01-11T05:09:50;-9.00;99.90
46159;DHT22;74657;45.650;25.590;2024-01-11T05:12:15;-9.00;99.90
46159;DHT22;74657;45.650;25.590;2024-01-11T05:14:38;-9.00;99.90
46159;DHT22;74657;45.650;25.590;2024-01-11T05:17:01;-9.00;99.90
46159;DHT22;74657;45.650;25.590;2024-01-11T05:19:24;-9.00;99.90
46159;DHT22;74657;45.650;25.590;2024-01-11T05:21:47;-9.00;99.90
46159;DHT22;74657;45.650;25.590;2024-01-11T05:24:10;-9.00;99.90
46159;DHT22;74657;45.650;25.590;2024-01-11T05:26:33;-9.00;99.90
46159;DHT22;74657;45.650;25.590;2024-01-11T05:28:57;-9.00;99.90
46159;DHT22;74657;45.650;25.590;2024-01-11T05:31:21;-8.90;99.90
46159;DHT22;74657;45.650;25.590;2024-01-11T05:33:44;-8.90;99.90
46159;DHT22;74657;45.650;25.590;2024-01-11T05:36:09;-8.90;99.90
46159;DHT22;74657;45.650;25.590;2024-01-11T05:38:32;-8.90;99.90
46159;DHT22;74657;45.650;25.590;2024-01-11T05:40:54;-8.90;99.90
46159;DHT22;74657;45.650;25.590;2024-01-11T05:43:18;-8.80;99.90
46159;DHT22;74657;45.650;25.590;2024-01-11T05:45:42;-8.80;99.90
46159;DHT22;74657;45.650;25.590;2024-01-11T05:48:09;-8.80;99.90
46159;DHT22;74657;45.650;25.590;2024-01-11T05:50:33;-8.80;99.90
46159;DHT22;74657;45.650;25.590;2024-01-11T05:52:56;-8.90;99.90
46159;DHT22;74657;45.650;25.590;2024-01-11T05:55:19;-8.90;99.90
46159;DHT22;74657;45.650;25.590;2024-01-11T05:57:42;-8.90;99.90
46159;DHT22;74657;45.650;25.590;2024-01-11T06:00:06;-8.90;99.90
46159;DHT22;74657;45.650;25.590;2024-01-11T06:02:30;-8.80;99.90
46159;DHT22;74657;45.650;25.590;2024-01-11T06:04:53;-8.80;99.90
46159;DHT22;74657;45.650;25.590;2024-01-11T06:07:16;-8.90;99.90
46159;DHT22;74657;45.650;25.590;2024-01-11T06:09:39;-8.80;99.90
46159;DHT22;74657;45.650;25.590;2024-01-11T06:12:02;-8.80;99.90
46159;DHT22;74657;45.650;25.590;2024-01-11T06:14:25;-8.90;99.90
46159;DHT22;74657;45.650;25.590;2024-01-11T06:16:48;-8.90;99.90
46159;DHT22;74657;45.650;25.590;2024-01-11T06:19:13;-8.90;99.90
46159;DHT22;74657;45.650;25.590;2024-01-11T06:21:36;-8.80;99.90
46159;DHT22;74657;45.650;25.590;2024-01-11T06:23:59;-8.90;99.90
46159;DHT22;74657;45.650;25.590;2024-01-11T06:26:22;-8.80;99.90
46159;DHT22;74657;45.650;25.590;2024-01-11T06:28:45;-8.80;99.90
46159;DHT22;74657;45.650;25.590;2024-01-11T06:31:09;-8.80;99.90
46159;DHT22;74657;45.650;25.590;2024-01-11T06:33:34;-8.80;99.90
46159;DHT22;74657;45.650;25.590;2024-01-11T06:36:00;-8.80;99.90
46159;DHT22;74657;45.650;25.590;2024-01-11T06:38:22;-8.80;99.90
46159;DHT22;74657;45.650;25.590;2024-01-11T06:40:45;-8.80;99.90
46159;DHT22;74657;45.650;25.590;2024-01-11T06:43:08;-8.60;99.90
46159;DHT22;74657;45.650;25.590;2024-01-11T06:45:32;-8.60;99.90
46159;DHT22;74657;45.650;25.590;2024-01-11T06:47:54;-8.60;99.90
46159;DHT22;74657;45.650;25.590;2024-01-11T06:50:18;-8.60;99.90
46159;DHT22;74657;45.650;25.590;2024-01-11T06:52:43;-8.60;99.90
46159;DHT22;74657;45.650;25.590;2024-01-11T06:55:07;-8.60;99.90
46159;DHT22;74657;45.650;25.590;2024-01-11T06:57:30;-8.50;99.90
46159;DHT22;74657;45.650;25.590;2024-01-11T06:59:52;-8.50;99.90
46159;DHT22;74657;45.650;25.590;2024-01-11T07:02:15;-8.50;99.90
46159;DHT22;74657;45.650;25.590;2024-01-11T07:04:43;-8.30;99.90
46159;DHT22;74657;45.650;25.590;2024-01-11T07:07:07;-8.30;99.90
46159;DHT22;74657;45.650;25.590;2024-01-11T07:09:31;-8.30;99.90
46159;DHT22;74657;45.650;25.590;2024-01-11T07:11:54;-8.30;99.90
46159;DHT22;74657;45.650;25.590;2024-01-11T07:14:17;-8.30;99.90
46159;DHT22;74657;45.650;25.590;2024-01-11T07:16:40;-8.30;99.90
46159;DHT22;74657;45.650;25.590;2024-01-11T07:19:02;-8.40;99.90
46159;DHT22;74657;45.650;25.590;2024-01-11T07:21:26;-8.30;99.90
46159;DHT22;74657;45.650;25.590;2024-01-11T07:23:53;-8.30;99.90
46159;DHT22;74657;45.650;25.590;2024-01-11T07:26:17;-8.30;99.90
46159;DHT22;74657;45.650;25.590;2024-01-11T07:28:40;-8.40;99.90
46159;DHT22;74657;45.650;25.590;2024-01-11T07:31:03;-8.30;99.90
46159;DHT22;74657;45.650;25.590;2024-01-11T07:33:26;-8.30;99.90
46159;DHT22;74657;45.650;25.590;2024-01-11T07:35:49;-8.20;99.90
46159;DHT22;74657;45.650;25.590;2024-01-11T07:38:12;-8.20;99.90
46159;DHT22;74657;45.650;25.590;2024-01-11T07:40:35;-8.10;99.90
46159;DHT22;74657;45.650;25.590;2024-01-11T07:43:03;-8.10;99.90
46159;DHT22;74657;45.650;25.590;2024-01-11T07:45:26;-8.00;99.90
46159;DHT22;74657;45.650;25.590;2024-01-11T07:47:49;-8.00;99.90
46159;DHT22;74657;45.650;25.590;2024-01-11T07:50:12;-7.90;99.90
46159;DHT22;74657;45.650;25.590;2024-01-11T07:52:35;-7.80;99.90
46159;DHT22;74657;45.650;25.590;2024-01-11T07:54:59;-7.70;99.90
46159;DHT22;74657;45.650;25.590;2024-01-11T07:57:27;-7.60;99.90
46159;DHT22;74657;45.650;25.590;2024-01-11T07:59:53;-7.50;99.90
46159;DHT22;74657;45.650;25.590;2024-01-11T08:02:16;-7.50;99.90
46159;DHT22;74657;45.650;25.590;2024-01-11T08:04:39;-7.50;99.90
46159;DHT22;74657;45.650;25.590;2024-01-11T08:07:02;-7.40;99.90
46159;DHT22;74657;45.650;25.590;2024-01-11T08:09:25;-7.30;99.90
46159;DHT22;74657;45.650;25.590;2024-01-11T08:11:48;-7.30;99.90
46159;DHT22;74657;45.650;25.590;2024-01-11T08:14:13;-7.30;99.90
46159;DHT22;74657;45.650;25.590;2024-01-11T08:16:38;-7.30;99.90
46159;DHT22;74657;45.650;25.590;2024-01-11T08:19:01;-7.30;99.90
46159;DHT22;74657;45.650;25.590;2024-01-11T08:21:24;-7.40;99.90
46159;DHT22;74657;45.650;25.590;2024-01-11T08:23:47;-7.30;99.90
46159;DHT22;74657;45.650;25.590;2024-01-11T08:26:12;-7.30;99.90
46159;DHT22;74657;45.650;25.590;2024-01-11T08:28:35;-7.20;99.90
46159;DHT22;74657;45.650;25.590;2024-01-11T08:30:58;-7.10;99.90
46159;DHT22;74657;45.650;25.590;2024-01-11T08:33:22;-7.00;99.90
46159;DHT22;74657;45.650;25.590;2024-01-11T08:35:46;-7.00;99.90
46159;DHT22;74657;45.650;25.590;2024-01-11T08:38:08;-6.90;99.90
46159;DHT22;74657;45.650;25.590;2024-01-11T08:40:32;-6.80;99.90
46159;DHT22;74657;45.650;25.590;2024-01-11T08:42:55;-6.80;99.90
46159;DHT22;74657;45.650;25.590;2024-01-11T08:45:17;-6.70;99.90
46159;DHT22;74657;45.650;25.590;2024-01-11T08:47:40;-6.70;99.90
46159;DHT22;74657;45.650;25.590;2024-01-11T08:50:06;-6.60;99.90
46159;DHT22;74657;45.650;25.590;2024-01-11T08:52:29;-6.60;99.90
46159;DHT22;74657;45.650;25.590;2024-01-11T08:54:51;-6.50;99.90
46159;DHT22;74657;45.650;25.590;2024-01-11T08:57:14;-6.40;99.90
46159;DHT22;74657;45.650;25.590;2024-01-11T08:59:38;-6.30;99.90
46159;DHT22;74657;45.650;25.590;2024-01-11T09:02:01;-6.20;99.90
46159;DHT22;74657;45.650;25.590;2024-01-11T09:04:36;-6.10;99.90
46159;DHT22;74657;45.650;25.590;2024-01-11T09:07:01;-6.00;99.90
46159;DHT22;74657;45.650;25.590;2024-01-11T09:09:23;-5.90;99.90
46159;DHT22;74657;45.650;25.590;2024-01-11T09:11:46;-5.40;99.90
46159;DHT22;74657;45.650;25.590;2024-01-11T09:14:09;-4.40;99.90
46159;DHT22;74657;45.650;25.590;2024-01-11T09:16:49;-3.80;99.90
46159;DHT22;74657;45.650;25.590;2024-01-11T09:19:12;-3.60;99.90
46159;DHT22;74657;45.650;25.590;2024-01-11T09:21:35;-3.20;99.90
46159;DHT22;74657;45.650;25.590;2024-01-11T09:23:58;-3.10;99.90
46159;DHT22;74657;45.650;25.590;2024-01-11T09:26:20;-2.60;99.90
46159;DHT22;74657;45.650;25.590;2024-01-11T09:28:43;-2.60;99.80
46159;DHT22;74657;45.650;25.590;2024-01-11T09:31:07;-2.60;99.90
46159;DHT22;74657;45.650;25.590;2024-01-11T09:33:31;-2.60;99.30
46159;DHT22;74657;45.650;25.590;2024-01-11T09:35:54;-2.80;99.60
46159;DHT22;74657;45.650;25.590;2024-01-11T09:38:17;-2.80;99.50
46159;DHT22;74657;45.650;25.590;2024-01-11T09:40:40;-2.60;99.50
46159;DHT22;74657;45.650;25.590;2024-01-11T09:43:04;-2.50;99.00
46159;DHT22;74657;45.650;25.590;2024-01-11T09:45:27;-2.60;99.30
46159;DHT22;74657;45.650;25.590;2024-01-11T09:47:50;-2.10;98.60
46159;DHT22;74657;45.650;25.590;2024-01-11T09:50:16;-1.70;97.70
46159;DHT22;74657;45.650;25.590;2024-01-11T09:52:40;-1.40;97.60
46159;DHT22;74657;45.650;25.590;2024-01-11T09:55:05;-1.10;97.40
46159;DHT22;74657;45.650;25.590;2024-01-11T09:57:30;-0.90;96.20
46159;DHT22;74657;45.650;25.590;2024-01-11T09:59:56;-1.10;95.70
46159;DHT22;74657;45.650;25.590;2024-01-11T10:02:19;-1.40;96.20
46159;DHT22;74657;45.650;25.590;2024-01-11T10:04:43;-1.50;96.20
46159;DHT22;74657;45.650;25.590;2024-01-11T10:07:07;-2.10;97.20
46159;DHT22;74657;45.650;25.590;2024-01-11T10:09:30;-2.40;97.90
46159;DHT22;74657;45.650;25.590;2024-01-11T10:11:54;-2.00;98.20
46159;DHT22;74657;45.650;25.590;2024-01-11T10:14:16;-1.90;97.20
46159;DHT22;74657;45.650;25.590;2024-01-11T10:16:41;-2.20;97.60
46159;DHT22;74657;45.650;25.590;2024-01-11T10:19:05;-2.60;98.00
46159;DHT22;74657;45.650;25.590;2024-01-11T10:21:28;-2.80;99.00
46159;DHT22;74657;45.650;25.590;2024-01-11T10:23:53;-2.50;99.40
46159;DHT22;74657;45.650;25.590;2024-01-11T10:26:16;-2.00;98.00
46159;DHT22;74657;45.650;25.590;2024-01-11T10:28:42;-1.90;97.80
46159;DHT22;74657;45.650;25.590;2024-01-11T10:31:05;-1.90;97.40
46159;DHT22;74657;45.650;25.590;2024-01-11T10:33:28;-2.10;97.50
46159;DHT22;74657;45.650;25.590;2024-01-11T10:35:51;-2.00;98.30
46159;DHT22;74657;45.650;25.590;2024-01-11T10:38:15;-2.10;98.70
46159;DHT22;74657;45.650;25.590;2024-01-11T10:40:40;-2.00;98.90
46159;DHT22;74657;45.650;25.590;2024-01-11T10:43:05;-1.80;98.80
46159;DHT22;74657;45.650;25.590;2024-01-11T10:45:32;-1.60;98.60
46159;DHT22;74657;45.650;25.590;2024-01-11T10:48:02;-1.30;97.50
46159;DHT22;74657;45.650;25.590;2024-01-11T10:50:30;-1.20;98.00
46159;DHT22;74657;45.650;25.590;2024-01-11T10:53:03;-1.10;97.60
46159;DHT22;74657;45.650;25.590;2024-01-11T10:55:26;-1.10;97.40
46159;DHT22;74657;45.650;25.590;2024-01-11T10:57:53;-0.60;96.60
46159;DHT22;74657;45.650;25.590;2024-01-11T11:00:18;0.80;95.50
46159;DHT22;74657;45.650;25.590;2024-01-11T11:02:42;2.80;93.00
46159;DHT22;74657;45.650;25.590;2024-01-11T11:05:06;4.00;88.10
46159;DHT22;74657;45.650;25.590;2024-01-11T11:07:32;4.40;83.30
46159;DHT22;74657;45.650;25.590;2024-01-11T11:09:57;3.90;85.70
46159;DHT22;74657;45.650;25.590;2024-01-11T11:12:22;3.10;85.60
46159;DHT22;74657;45.650;25.590;2024-01-11T11:14:47;2.30;89.20
46159;DHT22;74657;45.650;25.590;2024-01-11T11:17:10;1.70;90.50
46159;DHT22;74657;45.650;25.590;2024-01-11T11:19:33;1.30;91.30
46159;DHT22;74657;45.650;25.590;2024-01-11T11:21:56;0.80;91.00
46159;DHT22;74657;45.650;25.590;2024-01-11T11:24:20;0.30;91.20
46159;DHT22;74657;45.650;25.590;2024-01-11T11:26:43;0.20;91.00
46159;DHT22;74657;45.650;25.590;2024-01-11T11:29:06;0.20;92.40
46159;DHT22;74657;45.650;25.590;2024-01-11T11:31:42;0.30;92.60
46159;DHT22;74657;45.650;25.590;2024-01-11T11:34:05;0.10;93.60
46159;DHT22;74657;45.650;25.590;2024-01-11T11:36:29;0.20;93.70
46159;DHT22;74657;45.650;25.590;2024-01-11T11:38:52;0.60;92.80
46159;DHT22;74657;45.650;25.590;2024-01-11T11:41:21;1.20;91.90
46159;DHT22;74657;45.650;25.590;2024-01-11T11:43:48;1.50;91.60
46159;DHT22;74657;45.650;25.590;2024-01-11T11:46:11;1.30;91.10
46159;DHT22;74657;45.650;25.590;2024-01-11T11:48:54;1.30;90.70
46159;DHT22;74657;45.650;25.590;2024-01-11T11:51:18;1.10;91.30
46159;DHT22;74657;45.650;25.590;2024-01-11T11:53:45;1.00;92.00
46159;DHT22;74657;45.650;25.590;2024-01-11T11:56:10;1.60;91.00
46159;DHT22;74657;45.650;25.590;2024-01-11T11:58:34;1.60;90.50
46159;DHT22;74657;45.650;25.590;2024-01-11T12:00:58;1.60;90.30
46159;DHT22;74657;45.650;25.590;2024-01-11T12:03:24;1.40;91.00
46159;DHT22;74657;45.650;25.590;2024-01-11T12:05:54;1.10;91.30
46159;DHT22;74657;45.650;25.590;2024-01-11T12:08:18;0.60;92.30
46159;DHT22;74657;45.650;25.590;2024-01-11T12:10:41;0.30;92.80
46159;DHT22;74657;45.650;25.590;2024-01-11T12:13:04;0.10;92.70
46159;DHT22;74657;45.650;25.590;2024-01-11T12:15:27;0.10;93.00
46159;DHT22;74657;45.650;25.590;2024-01-11T12:17:50;0.20;92.40
46159;DHT22;74657;45.650;25.590;2024-01-11T12:20:20;0.20;93.30
46159;DHT22;74657;45.650;25.590;2024-01-11T12:22:44;0.40;92.80
46159;DHT22;74657;45.650;25.590;2024-01-11T12:25:08;0.90;92.50
46159;DHT22;74657;45.650;25.590;2024-01-11T12:27:31;1.50;91.50
46159;DHT22;74657;45.650;25.590;2024-01-11T12:29:54;1.80;90.60
46159;DHT22;74657;45.650;25.590;2024-01-11T12:32:20;1.80;90.50
46159;DHT22;74657;45.650;25.590;2024-01-11T12:34:44;1.70;90.40
46159;DHT22;74657;45.650;25.590;2024-01-11T12:37:08;1.40;91.00
46159;DHT22;74657;45.650;25.590;2024-01-11T12:39:33;1.10;92.30
46159;DHT22;74657;45.650;25.590;2024-01-11T12:41:56;0.70;91.70
46159;DHT22;74657;45.650;25.590;2024-01-11T12:44:20;0.50;91.70
46159;DHT22;74657;45.650;25.590;2024-01-11T12:46:43;0.20;91.50
46159;DHT22;74657;45.650;25.590;2024-01-11T12:49:10;0.10;91.40
46159;DHT22;74657;45.650;25.590;2024-01-11T12:51:36;-0.10;91.00
46159;DHT22;74657;45.650;25.590;2024-01-11T12:54:01;-0.20;92.00
46159;DHT22;74657;45.650;25.590;2024-01-11T12:56:27;-0.30;93.00
46159;DHT22;74657;45.650;25.590;2024-01-11T12:58:50;-0.10;92.70
46159;DHT22;74657;45.650;25.590;2024-01-11T13:01:13;0.10;91.60
46159;DHT22;74657;45.650;25.590;2024-01-11T13:03:39;0.20;92.20
46159;DHT22;74657;45.650;25.590;2024-01-11T13:06:07;0.20;91.30
46159;DHT22;74657;45.650;25.590;2024-01-11T13:08:32;0.20;92.00
46159;DHT22;74657;45.650;25.590;2024-01-11T13:10:58;0.00;91.70
46159;DHT22;74657;45.650;25.590;2024-01-11T13:13:22;-0.10;92.40
46159;DHT22;74657;45.650;25.590;2024-01-11T13:15:47;-0.30;92.60
46159;DHT22;74657;45.650;25.590;2024-01-11T13:18:10;-0.50;92.90
46159;DHT22;74657;45.650;25.590;2024-01-11T13:20:33;-0.60;93.10
46159;DHT22;74657;45.650;25.590;2024-01-11T13:23:11;-0.70;93.10
46159;DHT22;74657;45.650;25.590;2024-01-11T13:25:35;-0.80;93.20
46159;DHT22;74657;45.650;25.590;2024-01-11T13:27:58;-0.90;93.60
46159;DHT22;74657;45.650;25.590;2024-01-11T13:30:23;-0.90;93.40
46159;DHT22;74657;45.650;25.590;2024-01-11T13:32:45;-1.00;92.80
46159;DHT22;74657;45.650;25.590;2024-01-11T13:35:08;-1.00;93.10
46159;DHT22;74657;45.650;25.590;2024-01-11T13:37:31;-1.10;93.60
46159;DHT22;74657;45.650;25.590;2024-01-11T13:39:54;-1.10;93.70
46159;DHT22;74657;45.650;25.590;2024-01-11T13:42:17;-1.20;94.00
46159;DHT22;74657;45.650;25.590;2024-01-11T13:44:41;-1.30;94.20
46159;DHT22;74657;45.650;25.590;2024-01-11T13:47:05;-1.30;93.80
46159;DHT22;74657;45.650;25.590;2024-01-11T13:49:29;-1.40;93.90
46159;DHT22;74657;45.650;25.590;2024-01-11T13:51:52;-1.40;94.20
46159;DHT22;74657;45.650;25.590;2024-01-11T13:54:21;-1.50;94.70
46159;DHT22;74657;45.650;25.590;2024-01-11T13:56:44;-1.60;94.50
46159;DHT22;74657;45.650;25.590;2024-01-11T13:59:07;-1.60;94.20
46159;DHT22;74657;45.650;25.590;2024-01-11T14:01:30;-1.70;94.50
46159;DHT22;74657;45.650;25.590;2024-01-11T14:03:55;-1.70;94.90
46159;DHT22;74657;45.650;25.590;2024-01-11T14:06:18;-1.80;94.70
46159;DHT22;74657;45.650;25.590;2024-01-11T14:08:42;-1.80;94.90
46159;DHT22;74657;45.650;25.590;2024-01-11T14:11:05;-1.80;94.90
46159;DHT22;74657;45.650;25.590;2024-01-11T14:13:28;-1.80;94.60
46159;DHT22;74657;45.650;25.590;2024-01-11T14:15:51;-1.90;94.60
46159;DHT22;74657;45.650;25.590;2024-01-11T14:18:15;-1.90;94.40
46159;DHT22;74657;45.650;25.590;2024-01-11T14:20:39;-2.00;94.60
46159;DHT22;74657;45.650;25.590;2024-01-11T14:23:02;-2.10;95.00
46159;DHT22;74657;45.650;25.590;2024-01-11T14:25:25;-2.20;94.70
46159;DHT22;74657;45.650;25.590;2024-01-11T14:27:48;-2.30;94.80
46159;DHT22;74657;45.650;25.590;2024-01-11T14:30:12;-2.40;94.90
46159;DHT22;74657;45.650;25.590;2024-01-11T14:32:36;-2.40;94.90
46159;DHT22;74657;45.650;25.590;2024-01-11T14:34:59;-2.50;94.90
46159;DHT22;74657;45.650;25.590;2024-01-11T14:37:28;-2.50;95.00
46159;DHT22;74657;45.650;25.590;2024-01-11T14:39:50;-2.60;95.60
46159;DHT22;74657;45.650;25.590;2024-01-11T14:42:13;-2.70;95.70
46159;DHT22;74657;45.650;25.590;2024-01-11T14:44:36;-2.80;95.60
46159;DHT22;74657;45.650;25.590;2024-01-11T14:47:00;-2.70;94.40
46159;DHT22;74657;45.650;25.590;2024-01-11T14:49:23;-2.70;94.20
46159;DHT22;74657;45.650;25.590;2024-01-11T14:51:47;-2.80;94.60
46159;DHT22;74657;45.650;25.590;2024-01-11T14:54:12;-2.80;94.80
46159;DHT22;74657;45.650;25.590;2024-01-11T14:56:34;-2.90;94.70